Time;durP1;ratioP1;P1;durP2;ratioP2;P2;SDS_P1;SDS_P2;PMS_P1;PMS_P2;Temp;Humidity;BMP_temperature;BMP_pressure;BME280_temperature;BME280_humidity;BME280_pressure;Samples;Min_cycle;Max_cycle;Signal;HPM_P1;HPM_P2
2022/06/08 00:01:43;;;;;;;5.93;4.65;;;;;;;20.88;54.78;100978.25;5092911;28;20074;-70
2022/06/08 00:04:12;;;;;;;5.90;4.47;;;;;;;20.88;55.25;100970.31;5093406;28;20462;-70
2022/06/08 00:06:38;;;;;;;7.50;4.65;;;;;;;20.87;55.08;100963.31;5093511;28;20038;-70
2022/06/08 00:09:03;;;;;;;6.38;4.70;;;;;;;20.87;55.17;100971.28;5093023;28;20107;-70
2022/06/08 00:11:29;;;;;;;5.40;4.28;;;;;;;20.87;55.09;100965.97;5093208;28;20035;-70
2022/06/08 00:13:54;;;;;;;5.88;4.40;;;;;;;20.86;54.96;100964.31;5093468;28;20029;-71
2022/06/08 00:16:20;;;;;;;6.95;4.68;;;;;;;20.86;54.74;100959.03;5093162;28;20027;-70
2022/06/08 00:18:46;;;;;;;5.97;4.20;;;;;;;20.86;54.86;100949.25;5092990;28;20020;-72
2022/06/08 00:21:13;;;;;;;5.75;4.35;;;;;;;20.86;55.15;100956.38;5093463;28;20062;-70
2022/06/08 00:23:40;;;;;;;5.20;3.97;;;;;;;20.86;54.92;100956.38;5092803;28;20044;-70
2022/06/08 00:26:05;;;;;;;6.25;4.65;;;;;;;20.85;55.07;100950.22;5093093;28;20470;-70
2022/06/08 00:28:39;;;;;;;6.18;4.50;;;;;;;20.84;54.96;100943.28;5093052;28;20057;-71
2022/06/08 00:31:05;;;;;;;6.45;4.57;;;;;;;20.84;54.90;100940.63;5092693;28;20024;-71
2022/06/08 00:33:30;;;;;;;7.53;4.35;;;;;;;20.84;54.91;100951.22;5092849;28;20502;-70
2022/06/08 00:35:58;;;;;;;6.60;4.45;;;;;;;20.84;54.96;100945.91;5092834;28;20058;-70
2022/06/08 00:38:23;;;;;;;6.53;4.20;;;;;;;20.82;55.19;100940.75;5092301;28;20539;-70
2022/06/08 00:41:16;;;;;;;6.85;4.07;;;;;;;20.84;55.03;100937.97;5093354;28;20123;-70
2022/06/08 00:43:42;;;;;;;5.40;3.88;;;;;;;20.83;55.12;100931.81;5096341;28;20046;-71
2022/06/08 00:46:08;;;;;;;6.93;4.43;;;;;;;20.82;54.86;100935.47;5097154;28;20114;-70
2022/06/08 00:48:49;;;;;;;6.25;4.10;;;;;;;20.82;55.18;100932.81;5097996;28;20043;-71
2022/06/08 00:51:17;;;;;;;5.32;3.95;;;;;;;20.82;54.95;100934.59;5093211;28;20046;-70
2022/06/08 00:53:48;;;;;;;5.53;3.92;;;;;;;20.82;54.91;100921.38;5092796;28;20490;-70
2022/06/08 00:56:17;;;;;;;5.85;4.00;;;;;;;20.82;54.93;100916.06;5093445;28;20016;-70
2022/06/08 00:58:45;;;;;;;5.35;4.15;;;;;;;20.82;55.04;100916.94;5092295;28;20020;-70
2022/06/08 01:01:11;;;;;;;7.32;4.38;;;;;;;20.81;55.24;100919.72;5093011;28;20103;-70
2022/06/08 01:03:37;;;;;;;5.15;3.78;;;;;;;20.80;54.80;100907.44;5092909;28;20020;-70
2022/06/08 01:06:06;;;;;;;7.43;3.90;;;;;;;20.80;55.12;100916.22;5092416;28;20459;-70
2022/06/08 01:08:37;;;;;;;5.68;3.65;;;;;;;20.81;54.75;100906.47;5092576;28;20031;-71
2022/06/08 01:11:07;;;;;;;5.95;4.05;;;;;;;20.79;55.05;100906.63;5092795;28;20059;-70
2022/06/08 01:13:35;;;;;;;5.00;3.78;;;;;;;20.79;54.70;100906.63;5091707;28;20093;-70
2022/06/08 01:16:06;;;;;;;5.53;3.80;;;;;;;20.78;55.01;100901.47;5092941;28;20030;-70
2022/06/08 01:18:32;;;;;;;6.43;3.88;;;;;;;20.79;54.91;100893.38;5092366;28;20375;-70
2022/06/08 01:21:22;;;;;;;5.97;4.18;;;;;;;20.79;54.99;100879.28;5091903;28;20026;-70
2022/06/08 01:23:50;;;;;;;6.85;3.90;;;;;;;20.78;54.70;100886.38;5092449;28;20085;-70
2022/06/08 01:26:24;;;;;;;5.15;3.80;;;;;;;20.78;55.00;100880.25;5092082;28;20069;-71
2022/06/08 01:29:10;;;;;;;5.25;3.40;;;;;;;20.77;54.83;100882.06;5092347;28;20054;-70
2022/06/08 01:32:06;;;;;;;5.38;3.80;;;;;;;20.78;54.81;100877.63;5092260;28;20047;-70
2022/06/08 01:35:32;;;;;;;5.30;3.60;;;;;;;20.76;54.79;100869.81;5091703;28;20032;-70
2022/06/08 01:38:18;;;;;;;5.45;3.40;;;;;;;20.76;54.55;100863.66;5092593;28;20028;-70
2022/06/08 01:41:16;;;;;;;5.50;3.65;;;;;;;20.76;54.84;100863.66;5091995;28;20107;-69
2022/06/08 01:43:59;;;;;;;5.25;3.58;;;;;;;20.75;54.70;100862.00;5092095;28;20028;-70
2022/06/08 01:46:28;;;;;;;5.97;3.55;;;;;;;20.74;54.84;100855.84;5092456;28;20438;-70
2022/06/08 01:49:05;;;;;;;4.85;3.50;;;;;;;20.75;54.83;100859.34;5092524;28;20093;-69
2022/06/08 01:51:55;;;;;;;5.07;3.83;;;;;;;20.75;54.57;100851.41;5096087;28;20032;-70
2022/06/08 01:54:38;;;;;;;5.97;3.30;;;;;;;20.74;54.76;100847.91;5095819;28;20020;-70
2022/06/08 01:57:19;;;;;;;5.00;3.70;;;;;;;20.75;54.91;100848.75;5096052;28;20020;-71
2022/06/08 01:59:56;;;;;;;5.63;3.45;;;;;;;20.74;54.55;100833.84;5095981;28;20020;-71
2022/06/08 02:02:36;;;;;;;6.55;3.38;;;;;;;20.73;54.63;100832.16;5095786;28;20024;-70
2022/06/08 02:05:19;;;;;;;5.10;3.10;;;;;;;20.72;54.44;100828.69;5096297;28;20027;-70
2022/06/08 02:07:53;;;;;;;4.97;3.30;;;;;;;20.72;54.57;100833.97;5095679;28;20103;-70
2022/06/08 02:10:19;;;;;;;4.68;3.33;;;;;;;20.72;54.71;100814.63;5095928;28;20028;-70
2022/06/08 02:12:56;;;;;;;4.93;3.53;;;;;;;20.72;54.60;100822.56;5095665;28;20043;-70
2022/06/08 02:15:29;;;;;;;4.90;3.20;;;;;;;20.71;54.59;100813.78;5095372;28;20289;-71
2022/06/08 02:17:58;;;;;;;4.93;3.10;;;;;;;20.71;54.36;100805.00;5095723;28;20020;-71
2022/06/08 02:20:39;;;;;;;6.05;3.40;;;;;;;20.71;54.69;100805.84;5095680;28;20057;-71
2022/06/08 02:23:17;;;;;;;5.50;3.40;;;;;;;20.70;54.74;100798.06;5095413;28;20035;-71
2022/06/08 02:25:51;;;;;;;5.00;3.30;;;;;;;20.69;54.61;100791.06;5095130;28;20024;-71
2022/06/08 02:28:29;;;;;;;5.17;3.30;;;;;;;20.70;54.72;100792.75;5095658;28;20099;-71
2022/06/08 02:31:13;;;;;;;5.47;3.00;;;;;;;20.70;54.34;100784.81;5094653;28;20115;-71
2022/06/08 02:36:40;;;;;;;4.57;3.20;;;;;;;20.68;54.72;100779.66;5095270;28;20046;-70
2022/06/08 02:39:12;;;;;;;4.80;2.90;;;;;;;20.68;54.59;100779.66;5095402;28;20016;-71
2022/06/08 02:41:40;;;;;;;4.82;3.20;;;;;;;20.67;54.34;100780.63;5095289;28;20376;-71
2022/06/08 02:44:11;;;;;;;6.65;3.42;;;;;;;20.67;54.67;100775.31;5094613;28;20023;-71
2022/06/08 02:46:48;;;;;;;6.53;2.95;;;;;;;20.67;54.38;100772.69;5094887;28;20048;-71
2022/06/08 02:49:14;;;;;;;4.30;2.90;;;;;;;20.67;54.33;100772.69;5094924;28;20141;-71
2022/06/08 02:51:43;;;;;;;5.65;3.20;;;;;;;20.66;54.41;100771.00;5094196;28;20028;-71
2022/06/08 02:54:17;;;;;;;4.15;2.80;;;;;;;20.66;54.56;100763.06;5095044;28;20024;-71
2022/06/08 02:56:56;;;;;;;4.73;2.80;;;;;;;20.65;54.35;100762.22;5094907;28;20020;-71
2022/06/08 02:59:46;;;;;;;4.70;3.03;;;;;;;20.65;54.31;100770.16;5093852;28;20050;-71
2022/06/08 03:02:24;;;;;;;4.03;2.83;;;;;;;20.65;54.39;100759.59;5095408;28;20066;-71
2022/06/08 03:04:55;;;;;;;4.93;2.70;;;;;;;20.64;54.46;100757.91;5094055;28;20036;-71
2022/06/08 03:07:25;;;;;;;4.10;2.70;;;;;;;20.64;54.26;100757.91;5094725;28;20055;-71
2022/06/08 03:09:52;;;;;;;5.03;2.85;;;;;;;20.63;54.23;100755.34;5094491;28;20031;-71
2022/06/08 03:12:27;;;;;;;4.90;2.63;;;;;;;20.61;54.56;100752.84;5094390;28;20020;-71
2022/06/08 03:14:53;;;;;;;4.50;2.72;;;;;;;20.63;54.38;100750.91;5094404;28;20035;-71
2022/06/08 03:17:26;;;;;;;4.07;2.63;;;;;;;20.62;54.49;100748.41;5094553;28;20379;-71
2022/06/08 03:19:52;;;;;;;6.13;2.30;;;;;;;20.63;54.24;100753.56;5093439;28;20032;-71
2022/06/08 03:22:19;;;;;;;4.07;2.58;;;;;;;20.62;54.20;100751.88;5094477;28;20031;-71
2022/06/08 03:24:45;;;;;;;5.15;2.45;;;;;;;20.61;54.17;100744.91;5094054;28;20024;-71
2022/06/08 03:27:13;;;;;;;4.15;2.47;;;;;;;20.62;54.31;100753.72;5093885;28;20103;-71
2022/06/08 03:29:39;;;;;;;4.25;2.50;;;;;;;20.60;54.18;100747.69;5094269;28;20024;-71
2022/06/08 03:32:05;;;;;;;5.70;2.78;;;;;;;20.60;53.98;100748.56;5094445;28;20028;-71
2022/06/08 03:34:31;;;;;;;5.95;2.75;;;;;;;20.60;54.15;100750.34;5093296;28;20494;-71
2022/06/08 03:36:56;;;;;;;3.88;2.38;;;;;;;20.60;54.23;100751.22;5094215;28;20020;-71
2022/06/08 03:39:22;;;;;;;3.35;2.13;;;;;;;20.59;54.31;100746.88;5093834;28;20478;-70
2022/06/08 03:41:47;;;;;;;4.13;2.22;;;;;;;20.58;54.05;100752.31;5093813;28;20032;-71
2022/06/08 03:44:13;;;;;;;4.38;2.25;;;;;;;20.60;54.04;100755.66;5094278;28;20473;-71
2022/06/08 03:46:43;;;;;;;4.53;2.20;;;;;;;20.60;54.11;100755.66;5093362;28;20411;-71
2022/06/08 03:49:11;;;;;;;5.45;2.40;;;;;;;20.58;54.25;100753.13;5093854;28;20106;-70
2022/06/08 03:51:37;;;;;;;4.15;2.20;;;;;;;20.59;54.02;100756.66;5092994;28;20145;-71
2022/06/08 03:54:08;;;;;;;3.72;2.33;;;;;;;20.58;54.17;100762.91;5093539;28;20028;-71
2022/06/08 03:56:35;;;;;;;8.40;2.28;;;;;;;20.58;54.08;100760.25;5093543;28;20016;-71
2022/06/08 03:59:01;;;;;;;5.30;2.00;;;;;;;20.57;54.39;100756.78;5093830;28;20022;-70
2022/06/08 04:01:28;;;;;;;9.20;2.33;;;;;;;20.57;54.31;100756.78;5093407;28;20027;-71
2022/06/08 04:03:54;;;;;;;4.72;2.20;;;;;;;20.56;54.27;100744.50;5093418;28;20030;-71
2022/06/08 04:06:21;;;;;;;3.83;2.17;;;;;;;20.56;54.24;100747.16;5093644;28;20024;-71
2022/06/08 04:08:47;;;;;;;3.17;2.05;;;;;;;20.56;54.25;100744.50;5092587;28;20380;-71
2022/06/08 04:11:12;;;;;;;3.80;2.10;;;;;;;20.57;54.26;100748.00;5092882;28;20024;-71
2022/06/08 04:13:38;;;;;;;5.47;2.25;;;;;;;20.57;54.14;100740.91;5093251;28;20035;-72
2022/06/08 04:16:04;;;;;;;4.65;2.05;;;;;;;20.57;54.34;100740.03;5092876;28;20016;-72
2022/06/08 04:18:30;;;;;;;4.30;2.00;;;;;;;20.56;54.38;100735.75;5093442;28;20158;-72
2022/06/08 04:20:58;;;;;;;3.67;2.00;;;;;;;20.56;54.41;100733.94;5093370;28;20028;-72
2022/06/08 04:23:30;;;;;;;3.53;1.92;;;;;;;20.56;54.44;100733.09;5092878;28;20352;-72
2022/06/08 04:25:55;;;;;;;3.75;1.80;;;;;;;20.56;54.39;100722.50;5093603;28;20024;-72
2022/06/08 04:28:22;;;;;;;6.68;2.20;;;;;;;20.56;54.50;100727.81;5093555;28;20016;-71
2022/06/08 04:30:48;;;;;;;4.25;1.90;;;;;;;20.54;54.38;100729.78;5092154;28;20118;-71
2022/06/08 04:33:14;;;;;;;5.68;1.95;;;;;;;20.54;54.08;100727.94;5093413;28;20060;-71
2022/06/08 04:35:40;;;;;;;4.97;2.38;;;;;;;20.55;54.14;100728.78;5091792;28;20387;-71
2022/06/08 04:38:06;;;;;;;4.90;2.20;;;;;;;20.53;54.54;100723.63;5093227;28;20028;-70
2022/06/08 04:40:35;;;;;;;3.72;1.92;;;;;;;20.54;54.14;100730.59;5093047;28;20115;-71
2022/06/08 04:43:01;;;;;;;4.43;2.05;;;;;;;20.53;54.52;100723.63;5092727;28;20028;-70
2022/06/08 04:45:26;;;;;;;3.13;1.77;;;;;;;20.53;54.20;100723.63;5092863;28;20020;-70
2022/06/08 04:47:52;;;;;;;4.00;1.80;;;;;;;20.53;54.62;100718.31;5092902;28;20364;-71
2022/06/08 04:50:17;;;;;;;3.20;1.80;;;;;;;20.53;54.46;100710.38;5092317;28;20048;-71
2022/06/08 04:52:43;;;;;;;4.00;1.88;;;;;;;20.51;54.38;100704.41;5092383;28;20050;-71
2022/06/08 04:55:13;;;;;;;4.03;1.88;;;;;;;20.53;54.42;100705.09;5093383;28;20024;-71
2022/06/08 04:57:39;;;;;;;5.45;1.80;;;;;;;20.53;54.45;100704.25;5094744;28;20028;-70
2022/06/08 05:00:13;;;;;;;3.53;1.70;;;;;;;20.53;54.62;100701.63;5096264;28;20030;-71
2022/06/08 05:02:44;;;;;;;3.05;1.75;;;;;;;20.52;54.49;100700.78;5097084;28;20024;-71
2022/06/08 05:05:31;;;;;;;4.03;1.60;;;;;;;20.51;54.54;100701.75;5094809;28;20020;-71
2022/06/08 05:08:00;;;;;;;3.75;1.60;;;;;;;20.52;54.84;100708.75;5093025;28;20020;-72
2022/06/08 05:10:28;;;;;;;2.83;1.63;;;;;;;20.51;54.74;100707.06;5092596;28;20131;-71
2022/06/08 05:12:53;;;;;;;6.00;1.90;;;;;;;20.51;54.56;100701.75;5091474;28;20024;-71
2022/06/08 05:15:29;;;;;;;5.18;1.75;;;;;;;20.52;54.85;100694.63;5092965;28;20122;-71
2022/06/08 05:17:55;;;;;;;4.32;1.70;;;;;;;20.51;54.71;100685.88;5092100;28;20017;-72
2022/06/08 05:20:24;;;;;;;3.80;1.65;;;;;;;20.52;54.77;100684.06;5092504;28;20043;-72
2022/06/08 05:22:51;;;;;;;4.40;1.90;;;;;;;20.51;54.44;100685.06;5093583;28;20032;-72
2022/06/08 05:25:22;;;;;;;3.35;1.70;;;;;;;20.51;54.89;100682.41;5096493;28;20028;-72
2022/06/08 05:27:47;;;;;;;3.17;1.50;;;;;;;20.50;54.72;100673.59;5096188;28;20153;-71
2022/06/08 05:30:13;;;;;;;4.78;1.50;;;;;;;20.51;54.80;100677.94;5096830;28;20111;-72
2022/06/08 05:32:39;;;;;;;4.32;1.50;;;;;;;20.51;54.84;100679.75;5095708;28;20032;-71
2022/06/08 05:35:05;;;;;;;3.08;1.60;;;;;;;20.50;54.65;100662.19;5096449;28;20024;-72
2022/06/08 05:37:34;;;;;;;3.72;1.70;;;;;;;20.50;54.77;100665.66;5096278;28;20166;-71
2022/06/08 05:39:59;;;;;;;4.13;1.50;;;;;;;20.51;54.89;100661.22;5095812;28;20428;-72
2022/06/08 05:42:24;;;;;;;4.15;2.00;;;;;;;20.52;54.99;100662.88;5096653;28;20019;-72
2022/06/08 05:44:50;;;;;;;3.20;1.92;;;;;;;20.50;54.87;100656.91;5096289;28;20020;-71
2022/06/08 05:47:16;;;;;;;3.08;1.50;;;;;;;20.48;54.99;100647.28;5095881;28;20111;-71
2022/06/08 05:49:45;;;;;;;4.22;1.80;;;;;;;20.52;55.14;100647.00;5095746;28;20047;-70
2022/06/08 05:52:11;;;;;;;7.28;1.88;;;;;;;20.54;54.98;100647.69;5095606;28;20028;-71
2022/06/08 05:54:42;;;;;;;6.57;1.55;;;;;;;20.52;55.25;100639.91;5095072;28;20044;-71
2022/06/08 05:57:07;;;;;;;7.63;1.75;;;;;;;20.54;55.24;100635.28;5096517;28;20016;-71
2022/06/08 05:59:32;;;;;;;4.43;1.60;;;;;;;20.55;55.07;100636.94;5096036;28;20099;-71
2022/06/08 06:01:57;;;;;;;5.38;1.65;;;;;;;20.56;54.97;100629.84;5095272;28;20031;-72
2022/06/08 06:04:23;;;;;;;7.18;1.73;;;;;;;20.55;55.09;100629.00;5096261;28;20108;-71
2022/06/08 06:06:48;;;;;;;3.42;1.60;;;;;;;20.56;55.03;100635.16;5095851;28;20708;-71
2022/06/08 06:09:16;;;;;;;4.45;1.77;;;;;;;20.55;54.85;100634.28;5095026;28;20107;-71
2022/06/08 06:11:41;;;;;;;7.20;3.05;;;;;;;20.55;54.70;100625.53;5095697;28;20032;-71
2022/06/08 06:14:08;;;;;;;6.47;1.60;;;;;;;20.56;54.94;100635.16;5095443;28;20024;-71
2022/06/08 06:16:34;;;;;;;5.53;1.75;;;;;;;20.55;54.94;100636.94;5095297;28;20052;-70
2022/06/08 06:18:59;;;;;;;3.92;1.60;;;;;;;20.55;55.03;100639.59;5095762;28;20454;-72
2022/06/08 06:21:25;;;;;;;4.30;1.60;;;;;;;20.55;54.64;100644.06;5095397;28;20055;-72
2022/06/08 06:23:55;;;;;;;6.18;1.65;;;;;;;20.56;54.66;100635.16;5095084;28;20103;-72
2022/06/08 06:26:21;;;;;;;6.18;2.00;;;;;;;20.55;54.98;100644.88;5095586;28;20102;-71
2022/06/08 06:28:47;;;;;;;7.97;1.95;;;;;;;20.55;54.71;100641.41;5094862;28;20024;-71
2022/06/08 06:31:20;;;;;;;3.63;1.42;;;;;;;20.54;54.67;100642.41;5095286;28;20421;-71
2022/06/08 06:33:46;;;;;;;3.75;1.70;;;;;;;20.55;54.81;100639.59;5094772;28;20028;-72
2022/06/08 06:36:14;;;;;;;2.95;1.40;;;;;;;20.56;54.74;100645.72;5094518;28;20091;-69
2022/06/08 06:38:40;;;;;;;5.43;1.42;;;;;;;20.53;54.43;100636.25;5099026;28;20100;-71
2022/06/08 06:41:09;;;;;;;5.80;1.50;;;;;;;20.53;54.82;100638.09;5098240;28;20455;-71
2022/06/08 06:43:35;;;;;;;5.93;1.60;;;;;;;20.54;54.71;100635.28;5094963;28;20017;-70
2022/06/08 06:46:02;;;;;;;4.68;1.60;;;;;;;20.56;54.77;100640.44;5095825;28;20066;-70
2022/06/08 06:48:28;;;;;;;4.45;1.60;;;;;;;20.56;54.76;100627.19;5095390;28;20065;-70
2022/06/08 06:50:53;;;;;;;4.80;1.73;;;;;;;20.57;54.53;100631.50;5094257;28;20024;-70
2022/06/08 06:53:18;;;;;;;6.20;1.63;;;;;;;20.57;54.66;100620.91;5095675;28;20544;-69
2022/06/08 06:55:46;;;;;;;5.57;1.50;;;;;;;20.58;54.41;100622.59;5094962;28;20048;-70
2022/06/08 06:58:12;;;;;;;3.83;1.52;;;;;;;20.59;54.45;100616.31;5094541;28;20028;-70
2022/06/08 07:00:37;;;;;;;3.97;1.50;;;;;;;20.58;54.46;100618.13;5095874;28;20023;-71
2022/06/08 07:03:08;;;;;;;3.75;1.40;;;;;;;20.59;54.51;100621.63;5096254;28;20023;-71
2022/06/08 07:05:35;;;;;;;5.45;1.40;;;;;;;20.59;54.75;100622.44;5093849;28;20104;-71
2022/06/08 07:08:00;;;;;;;3.88;1.30;;;;;;;20.61;54.49;100615.19;5095038;28;20016;-72
2022/06/08 07:10:26;;;;;;;3.47;1.52;;;;;;;20.61;56.18;100604.59;5094368;28;20024;-72
2022/06/08 07:12:51;;;;;;;5.63;1.38;;;;;;;20.63;56.57;100618.53;5094453;28;20111;-70
2022/06/08 07:15:19;;;;;;;4.22;1.42;;;;;;;20.63;57.65;100612.38;5094864;28;20020;-71
2022/06/08 07:17:45;;;;;;;4.78;1.20;;;;;;;20.64;58.28;100622.03;5093738;28;20371;-70
2022/06/08 07:20:12;;;;;;;5.82;1.63;;;;;;;20.63;57.77;100617.69;5094626;28;20024;-70
2022/06/08 07:22:38;;;;;;;4.03;1.38;;;;;;;20.61;57.72;100612.53;5094242;28;20461;-69
2022/06/08 07:25:06;;;;;;;4.22;1.38;;;;;;;20.60;57.87;100610.03;5093889;28;20121;-69
2022/06/08 07:27:32;;;;;;;3.17;1.40;;;;;;;20.59;57.81;100605.72;5093900;28;20024;-70
2022/06/08 07:29:57;;;;;;;3.33;1.30;;;;;;;20.58;57.85;100612.00;5094355;28;20027;-70
2022/06/08 07:32:22;;;;;;;3.45;1.50;;;;;;;20.56;57.90;100596.25;5093509;28;20471;-69
2022/06/08 07:34:47;;;;;;;5.03;1.40;;;;;;;20.56;57.66;100603.38;5094195;28;20022;-70
2022/06/08 07:37:13;;;;;;;4.03;1.30;;;;;;;20.55;57.97;100604.34;5094504;28;20398;-70
2022/06/08 07:39:38;;;;;;;2.90;1.25;;;;;;;20.54;58.21;100600.88;5093288;28;20273;-68
2022/06/08 07:42:04;;;;;;;4.07;1.20;;;;;;;20.54;58.35;100597.41;5094186;28;20050;-69
2022/06/08 07:44:32;;;;;;;4.88;1.50;;;;;;;20.53;58.69;100599.19;5093914;28;20072;-69
2022/06/08 07:46:57;;;;;;;2.95;1.25;;;;;;;20.53;58.27;100599.19;5093193;28;20039;-67
2022/06/08 07:49:41;;;;;;;3.65;1.30;;;;;;;20.53;58.11;100606.31;5093657;28;20135;-67
2022/06/08 07:52:13;;;;;;;5.43;1.40;;;;;;;20.52;58.62;100600.19;5094005;28;20036;-69
2022/06/08 07:54:40;;;;;;;5.60;1.30;;;;;;;20.52;58.61;100605.50;5092914;28;20271;-69
2022/06/08 07:57:06;;;;;;;2.75;1.30;;;;;;;20.51;58.70;100600.34;5093759;28;20471;-68
2022/06/08 07:59:37;;;;;;;4.93;1.30;;;;;;;20.51;58.51;100601.16;5093252;28;20020;-68
2022/06/08 08:02:05;;;;;;;3.38;1.40;;;;;;;20.51;58.76;100608.28;5093756;28;20020;-69
2022/06/08 08:04:30;;;;;;;4.13;1.30;;;;;;;20.51;58.85;100614.41;5093590;28;20061;-70
2022/06/08 08:06:56;;;;;;;2.80;1.20;;;;;;;20.51;58.71;100611.75;5093302;28;20027;-69
2022/06/08 08:09:22;;;;;;;3.88;1.40;;;;;;;20.51;58.93;100606.47;5093530;28;20470;-70
2022/06/08 08:11:53;;;;;;;4.50;1.30;;;;;;;20.50;59.05;100607.44;5093307;28;20035;-69
2022/06/08 08:14:23;;;;;;;3.97;1.70;;;;;;;20.50;59.07;100604.78;5092952;28;20063;-68
2022/06/08 08:16:53;;;;;;;4.40;1.48;;;;;;;20.47;59.52;100603.28;5093331;28;20073;-68
2022/06/08 08:19:20;;;;;;;3.20;1.23;;;;;;;20.50;59.36;100607.44;5093497;28;20092;-68
2022/06/08 08:21:50;;;;;;;4.35;1.30;;;;;;;20.49;59.43;100605.78;5092318;28;20026;-68
2022/06/08 08:24:16;;;;;;;4.15;1.40;;;;;;;20.51;59.69;100603.00;5093379;28;20024;-67
2022/06/08 08:26:44;;;;;;;5.60;1.40;;;;;;;20.49;59.39;100605.78;5093151;28;20028;-67
2022/06/08 08:29:13;;;;;;;4.10;1.40;;;;;;;20.50;59.60;100612.72;5092718;28;20020;-67
2022/06/08 08:31:39;;;;;;;3.40;1.40;;;;;;;20.50;59.47;100607.44;5092959;28;20136;-67
2022/06/08 08:34:04;;;;;;;3.38;1.33;;;;;;;20.50;59.79;100606.59;5093132;28;20028;-67
2022/06/08 08:36:30;;;;;;;4.72;1.20;;;;;;;20.48;59.71;100610.22;5092361;28;20023;-67
2022/06/08 10:02:51;;;;;;;4.57;1.35;;;;;;;20.43;59.76;100616.94;5090145;28;20896;-67
2022/06/08 10:05:24;;;;;;;3.63;1.17;;;;;;;20.45;59.67;100623.75;5089412;28;20040;-69
2022/06/08 10:08:08;;;;;;;6.38;1.52;;;;;;;20.46;59.42;100621.94;5090129;28;20104;-68
2022/06/08 10:11:03;;;;;;;3.53;1.40;;;;;;;20.47;58.79;100618.31;5090345;28;20028;-67
2022/06/08 10:13:37;;;;;;;5.95;1.60;;;;;;;20.48;58.40;100619.97;5089255;28;20032;-68
2022/06/08 10:16:22;;;;;;;7.20;1.40;;;;;;;20.50;58.84;100619.84;5089903;28;20031;-69
2022/06/08 10:18:54;;;;;;;5.70;1.60;;;;;;;20.51;58.36;100619.69;5088970;28;20032;-68
2022/06/08 10:21:31;;;;;;;7.22;1.60;;;;;;;20.52;58.50;100623.16;5089815;28;20028;-70
2022/06/08 10:23:59;;;;;;;5.30;1.35;;;;;;;20.53;58.51;100614.25;5089711;28;20024;-69
2022/06/08 10:26:33;;;;;;;4.95;1.40;;;;;;;20.52;58.46;100616.06;5089195;28;20028;-68
2022/06/08 10:29:10;;;;;;;5.72;1.42;;;;;;;20.54;58.41;100602.69;5089519;28;20032;-67
2022/06/08 10:31:48;;;;;;;3.92;1.30;;;;;;;20.54;58.36;100618.59;5089708;28;20029;-68
2022/06/08 10:34:19;;;;;;;4.47;1.40;;;;;;;20.54;58.38;100614.13;5089079;28;20379;-71
2022/06/08 10:36:51;;;;;;;2.97;1.25;;;;;;;20.54;58.28;100614.13;5089534;28;20398;-68
2022/06/08 10:39:20;;;;;;;5.55;1.40;;;;;;;20.54;58.29;100611.47;5089703;28;20383;-68
2022/06/08 10:44:51;;;;;;;5.80;1.50;;;;;;;20.51;58.31;100601.16;5089226;28;20085;-69
2022/06/08 10:47:28;;;;;;;6.05;1.50;;;;;;;20.55;58.28;100609.63;5088832;28;20028;-68
2022/06/08 10:50:10;;;;;;;6.32;1.55;;;;;;;20.55;58.28;100609.63;5089099;28;20020;-68
2022/06/08 10:52:50;;;;;;;4.88;1.27;;;;;;;20.55;58.05;100604.34;5089345;28;20445;-67
2022/06/08 10:55:19;;;;;;;5.38;1.65;;;;;;;20.55;58.15;100609.63;5088690;28;20120;-66
2022/06/08 12:26:27;;;;;;;5.43;1.52;;;;;;;20.57;60.10;100523.81;5110352;27;20413;-68
2022/06/08 12:29:14;;;;;;;7.18;1.67;;;;;;;20.57;60.04;100523.81;5109789;28;20138;-69
2022/06/08 12:31:39;;;;;;;7.18;1.58;;;;;;;20.59;59.67;100519.19;5110608;28;20023;-70
2022/06/08 12:34:32;;;;;;;4.03;1.25;;;;;;;20.60;59.91;100518.22;5110073;28;20118;-70
2022/06/08 12:36:58;;;;;;;3.75;1.42;;;;;;;20.61;60.23;100517.22;5109496;28;20526;-70
2022/06/08 12:39:28;;;;;;;3.95;1.23;;;;;;;20.62;59.88;100513.59;5109960;28;20110;-71
2022/06/08 12:41:56;;;;;;;6.05;1.55;;;;;;;20.62;60.07;100516.25;5110590;28;20020;-71
2022/06/08 12:44:26;;;;;;;5.82;1.75;;;;;;;20.63;59.67;100506.47;5109182;28;20040;-70
2022/06/08 12:47:00;;;;;;;3.88;1.33;;;;;;;20.62;59.92;100503.00;5110277;28;20024;-70
2022/06/08 12:49:37;;;;;;;;;;;;;;;20.62;59.86;100505.66;5109092;28;20152;-70
2022/06/08 12:52:20;;;;;;;3.47;1.30;;;;;;;20.63;59.87;100495.88;5109635;28;20388;-69
2022/06/08 12:54:48;;;;;;;3.67;1.40;;;;;;;20.62;59.77;100497.72;5110072;28;20028;-70
2022/06/08 12:57:18;;;;;;;6.93;1.40;;;;;;;20.61;59.13;100493.38;5108942;28;20116;-71
2022/06/08 12:59:46;;;;;;;4.72;1.40;;;;;;;20.62;59.10;100494.25;5109865;28;20098;-70
2022/06/08 13:02:24;;;;;;;4.05;1.20;;;;;;;20.63;59.36;100498.53;5109410;28;20032;-71
2022/06/08 13:04:51;;;;;;;5.03;1.48;;;;;;;20.62;59.27;100491.59;5109210;28;20023;-70
2022/06/08 13:07:21;;;;;;;6.43;1.92;;;;;;;20.61;59.23;100498.69;5109563;28;20016;-70
2022/06/08 13:09:49;;;;;;;4.78;1.40;;;;;;;20.65;59.07;100500.09;5109856;28;20020;-69
2022/06/08 13:12:21;;;;;;;4.50;1.60;;;;;;;20.64;59.06;100495.78;5108518;28;20031;-69
2022/06/08 13:14:47;;;;;;;7.05;1.60;;;;;;;20.65;58.92;100494.81;5109858;28;20028;-70
2022/06/08 13:17:13;;;;;;;9.07;1.52;;;;;;;20.64;59.03;100487.81;5109501;28;20069;-70
2022/06/08 13:19:39;;;;;;;7.18;1.38;;;;;;;20.63;58.98;100488.81;5108966;28;20527;-69
2022/06/08 13:22:05;;;;;;;7.13;1.55;;;;;;;20.63;58.82;100491.44;5109191;28;20024;-70
2022/06/08 13:24:30;;;;;;;5.38;1.65;;;;;;;20.64;58.62;100492.31;5108913;28;20055;-70
2022/06/08 13:26:56;;;;;;;7.80;1.50;;;;;;;20.64;58.60;100489.66;5097590;28;20020;-70
2022/06/08 13:29:21;;;;;;;8.00;1.63;;;;;;;20.63;58.87;100490.59;5095442;28;20058;-70
2022/06/08 13:31:48;;;;;;;4.50;1.20;;;;;;;20.64;58.33;100489.66;5095203;28;20142;-70
2022/06/08 13:34:14;;;;;;;3.80;1.20;;;;;;;20.64;58.56;100490.47;5095439;28;20035;-70
2022/06/08 13:36:45;;;;;;;2.95;1.13;;;;;;;20.64;58.40;100492.31;5095596;28;20524;-69
2022/06/08 13:39:39;;;;;;;5.63;1.25;;;;;;;20.64;58.27;100490.47;5094548;28;20031;-70
2022/06/08 13:42:10;;;;;;;5.95;1.40;;;;;;;20.63;58.41;100494.09;5095201;28;20031;-72
2022/06/08 13:44:43;;;;;;;3.20;1.25;;;;;;;20.64;58.54;100500.25;5095878;28;20470;-71
2022/06/08 13:47:28;;;;;;;4.53;1.20;;;;;;;20.63;58.07;100495.88;5094883;28;20020;-71
2022/06/08 13:50:04;;;;;;;3.83;1.48;;;;;;;20.64;58.36;100492.31;5095375;28;20027;-71
2022/06/08 13:52:32;;;;;;;5.20;1.20;;;;;;;20.64;58.11;100493.13;5095501;28;20050;-72
2022/06/08 13:55:00;;;;;;;3.92;1.30;;;;;;;20.64;58.26;100489.66;5094699;28;20020;-70
2022/06/08 13:57:29;;;;;;;2.75;1.02;;;;;;;20.64;58.16;100493.13;5094852;28;20032;-71
2022/06/08 13:59:57;;;;;;;4.10;1.10;;;;;;;20.63;58.06;100494.09;5094460;28;20477;-71
2022/06/08 14:02:41;;;;;;;5.97;1.50;;;;;;;20.65;58.23;100492.16;5094771;28;20043;-71
2022/06/08 14:05:08;;;;;;;2.83;1.00;;;;;;;20.64;58.30;100487.81;5094943;28;20032;-71
2022/06/08 14:13:07;;;;;;;3.28;1.08;;;;;;;20.65;58.17;100483.38;5094927;28;20074;-70
2022/06/08 14:15:32;;;;;;;3.03;1.10;;;;;;;20.64;57.88;100484.34;5093939;28;20017;-70
2022/06/08 14:17:58;;;;;;;2.90;1.10;;;;;;;20.62;58.04;100492.41;5094890;28;20035;-71
2022/06/08 14:20:35;;;;;;;2.90;1.10;;;;;;;20.64;57.74;100487.00;5093764;28;20039;-72
2022/06/08 14:23:04;;;;;;;5.43;1.13;;;;;;;20.63;57.94;100480.00;5094154;28;20024;-70
2022/06/08 14:25:31;;;;;;;3.17;1.10;;;;;;;20.64;58.03;100489.66;5094189;28;20127;-70
2022/06/08 14:27:57;;;;;;;4.28;1.20;;;;;;;20.65;57.98;100480.75;5094550;28;20023;-69
2022/06/08 14:30:22;;;;;;;4.05;1.20;;;;;;;20.65;57.53;100484.22;5093999;28;20115;-71
2022/06/08 14:32:52;;;;;;;3.03;1.10;;;;;;;20.64;57.92;100479.88;5094426;28;20055;-70
2022/06/08 14:35:20;;;;;;;4.25;1.02;;;;;;;20.66;57.69;100490.31;5093529;28;20039;-70
2022/06/08 14:37:46;;;;;;;4.30;1.65;;;;;;;20.65;57.67;100484.22;5093336;28;20059;-70
2022/06/08 14:40:27;;;;;;;3.97;1.38;;;;;;;20.64;57.80;100484.34;5094290;28;20036;-71
2022/06/08 14:42:53;;;;;;;2.60;1.17;;;;;;;20.64;57.72;100487.00;5093720;28;20024;-70